createdAt,value
2023-04-15T00:00:59.808Z,8.95
2023-04-15T00:03:27.035Z,8.96
2023-04-15T00:05:53.767Z,8.96
2023-04-15T00:08:20.614Z,8.97
2023-04-15T00:10:47.411Z,8.98
2023-04-15T00:13:13.938Z,9.00
2023-04-15T00:15:41.110Z,9.01
2023-04-15T00:18:08.318Z,9.02
2023-04-15T00:20:35.486Z,9.03
2023-04-15T00:23:04.215Z,9.05
2023-04-15T00:25:31.189Z,9.07
2023-04-15T00:27:57.793Z,9.07
2023-04-15T00:30:24.435Z,9.08
2023-04-15T00:32:51.102Z,9.08
2023-04-15T00:35:18.291Z,9.12
2023-04-15T00:37:46.325Z,9.13
2023-04-15T00:40:13.953Z,9.12
2023-04-15T00:42:40.991Z,9.12
2023-04-15T00:45:08.924Z,9.11
2023-04-15T00:47:37.753Z,9.12
2023-04-15T00:50:05.103Z,9.12
2023-04-15T00:52:32.137Z,9.12
2023-04-15T00:54:59.643Z,9.09
2023-04-15T00:57:28.264Z,9.03
2023-04-15T00:59:56.117Z,9.02
2023-04-15T01:02:23.725Z,8.98
2023-04-15T01:04:50.537Z,8.98
2023-04-15T01:07:17.481Z,8.93
2023-04-15T01:09:44.176Z,8.92
2023-04-15T01:12:14.234Z,8.88
2023-04-15T01:14:41.220Z,8.87
2023-04-15T01:17:07.755Z,8.84
2023-04-15T01:19:34.676Z,8.80
2023-04-15T01:22:03.166Z,8.78
2023-04-15T01:24:31.828Z,8.77
2023-04-15T01:26:58.553Z,8.75
2023-04-15T01:29:25.197Z,8.76
2023-04-15T01:31:53.118Z,8.76
2023-04-15T01:34:19.879Z,8.79
2023-04-15T01:36:46.897Z,8.78
2023-04-15T01:39:13.577Z,8.80
2023-04-15T01:41:40.881Z,8.81
2023-04-15T01:44:07.480Z,8.83
2023-04-15T01:46:34.376Z,8.82
2023-04-15T01:49:01.349Z,8.80
2023-04-15T01:51:28.323Z,8.80
2023-04-15T01:53:56.982Z,8.79
2023-04-15T01:56:26.734Z,8.81
2023-04-15T01:58:53.522Z,8.80
2023-04-15T02:01:20.281Z,8.80
2023-04-15T02:03:48.037Z,8.77
2023-04-15T02:06:15.114Z,8.75
2023-04-15T02:08:41.777Z,8.73
2023-04-15T02:11:08.535Z,8.72
2023-04-15T02:13:35.285Z,8.71
2023-04-15T02:16:01.968Z,8.71
2023-04-15T02:18:28.637Z,8.69
2023-04-15T02:20:57.264Z,8.71
2023-04-15T02:23:24.085Z,8.70
2023-04-15T02:25:53.473Z,8.70
2023-04-15T02:28:21.661Z,8.70
2023-04-15T02:30:53.103Z,8.71
2023-04-15T02:33:20.965Z,8.71
2023-04-15T02:35:47.659Z,8.70
2023-04-15T02:38:16.758Z,8.68
2023-04-15T02:40:43.387Z,8.72
2023-04-15T02:43:09.931Z,8.72
2023-04-15T02:45:36.627Z,8.73
2023-04-15T02:48:06.438Z,8.75
2023-04-15T02:50:33.447Z,8.74
2023-04-15T02:53:01.685Z,8.68
2023-04-15T02:55:29.016Z,8.73
2023-04-15T02:57:55.765Z,8.70
2023-04-15T03:00:22.632Z,8.69
2023-04-15T03:02:52.512Z,8.62
2023-04-15T03:05:19.194Z,8.58
2023-04-15T03:07:45.831Z,8.55
2023-04-15T03:10:12.535Z,8.51
2023-04-15T03:12:39.545Z,8.46
2023-04-15T03:15:06.989Z,8.43
2023-04-15T03:17:33.746Z,8.41
2023-04-15T03:20:02.456Z,8.35
2023-04-15T03:22:29.045Z,8.32
2023-04-15T03:24:55.633Z,8.31
2023-04-15T03:27:22.191Z,8.27
2023-04-15T03:29:48.814Z,8.26
2023-04-15T03:32:15.571Z,8.24
2023-04-15T03:34:42.352Z,8.20
2023-04-15T03:37:08.951Z,8.15
2023-04-15T03:39:36.174Z,8.15
2023-04-15T03:42:03.480Z,8.15
2023-04-15T03:44:30.618Z,8.18
2023-04-15T03:46:57.148Z,8.22
2023-04-15T03:49:24.588Z,8.27
2023-04-15T03:51:51.318Z,8.40
2023-04-15T03:54:17.821Z,8.50
2023-04-15T03:56:44.390Z,8.51
2023-04-15T03:59:11.442Z,8.52
2023-04-15T04:01:38.022Z,8.64
2023-04-15T04:04:04.789Z,8.87
2023-04-15T04:06:31.705Z,8.85
2023-04-15T04:08:58.301Z,8.77
2023-04-15T04:11:24.909Z,8.73
2023-04-15T04:13:51.456Z,8.71
2023-04-15T04:16:18.062Z,8.72
2023-04-15T04:18:44.624Z,8.61
2023-04-15T04:21:11.678Z,8.53
2023-04-15T04:23:38.227Z,8.40
2023-04-15T04:26:04.757Z,8.45
2023-04-15T04:28:31.600Z,8.38
2023-04-15T04:30:58.128Z,8.43
2023-04-15T04:33:24.757Z,8.30
2023-04-15T04:35:51.605Z,8.20
2023-04-15T04:38:18.206Z,8.12
2023-04-15T04:40:44.805Z,8.06
2023-04-15T04:43:11.368Z,8.00
2023-04-15T04:45:37.941Z,7.98
2023-04-15T04:48:07.271Z,7.97
2023-04-15T04:50:34.493Z,7.92
2023-04-15T04:53:01.743Z,7.90
2023-04-15T04:55:28.588Z,7.91
2023-04-15T04:57:55.301Z,7.93
2023-04-15T05:00:21.827Z,7.97
2023-04-15T05:02:48.685Z,7.99
2023-04-15T05:05:15.447Z,7.96
2023-04-15T05:07:42.322Z,7.94
2023-04-15T05:10:09.348Z,7.97
2023-04-15T05:12:37.517Z,7.91
2023-04-15T05:15:05.324Z,7.96
2023-04-15T05:17:33.366Z,7.97
2023-04-15T05:20:00.002Z,7.97
2023-04-15T05:22:26.607Z,7.97
2023-04-15T05:24:53.168Z,8.01
2023-04-15T05:27:19.726Z,8.02
2023-04-15T05:29:46.396Z,8.03
2023-04-15T05:32:12.958Z,8.07
2023-04-15T05:34:39.467Z,8.08
2023-04-15T05:37:06.112Z,8.14
2023-04-15T05:39:32.800Z,8.18
2023-04-15T05:42:00.088Z,8.19
2023-04-15T05:44:26.925Z,8.22
2023-04-15T05:46:53.492Z,8.25
2023-04-15T05:49:20.241Z,8.28
2023-04-15T05:51:48.544Z,8.31
2023-04-15T05:54:15.217Z,8.35
2023-04-15T05:56:41.897Z,8.42
2023-04-15T05:59:08.662Z,8.45
2023-04-15T06:01:35.609Z,8.47
2023-04-15T06:04:02.199Z,8.51
2023-04-15T06:06:28.791Z,8.55
2023-04-15T06:08:55.963Z,8.62
2023-04-15T06:11:22.558Z,8.71
2023-04-15T06:13:49.250Z,8.79
2023-04-15T06:16:16.077Z,8.96
2023-04-15T06:18:42.703Z,9.05
2023-04-15T06:21:09.260Z,9.20
2023-04-15T06:23:41.171Z,9.30
2023-04-15T06:26:08.124Z,9.42
2023-04-15T06:28:34.794Z,9.52
2023-04-15T06:31:02.019Z,9.63
2023-04-15T06:33:28.764Z,9.71
2023-04-15T06:35:55.423Z,9.83
2023-04-15T06:38:22.057Z,9.88
2023-04-15T06:40:48.638Z,9.94
2023-04-15T06:43:15.628Z,9.89
2023-04-15T06:45:42.180Z,9.89
2023-04-15T06:48:08.722Z,9.89
2023-04-15T06:50:35.805Z,9.92
2023-04-15T06:53:03.085Z,10.01
2023-04-15T06:55:29.864Z,10.08
2023-04-15T06:57:56.505Z,10.11
2023-04-15T07:00:23.363Z,10.36
2023-04-15T07:02:49.935Z,10.65
2023-04-15T07:05:16.492Z,10.97
2023-04-15T07:07:43.131Z,11.14
2023-04-15T07:10:10.180Z,11.10
2023-04-15T07:12:36.812Z,11.39
2023-04-15T07:15:04.405Z,11.63
2023-04-15T07:17:31.117Z,12.06
2023-04-15T07:19:57.699Z,12.50
2023-04-15T07:22:24.479Z,12.58
2023-04-15T07:24:51.174Z,12.65
2023-04-15T07:27:18.244Z,12.72
2023-04-15T07:29:44.758Z,13.02
2023-04-15T07:32:11.434Z,13.28
2023-04-15T07:34:38.149Z,13.75
2023-04-15T07:37:04.722Z,13.75
2023-04-15T07:39:31.567Z,13.80
2023-04-15T07:41:59.120Z,13.90
2023-04-15T07:44:27.228Z,14.14
2023-04-15T07:46:53.988Z,14.07
2023-04-15T07:49:21.505Z,13.91
2023-04-15T07:51:49.121Z,13.77
2023-04-15T07:54:16.308Z,13.67
2023-04-15T07:56:43.048Z,13.96
2023-04-15T07:59:10.174Z,13.66
2023-04-15T08:01:36.909Z,13.92
2023-04-15T08:04:03.993Z,14.14
2023-04-15T08:06:31.049Z,14.20
2023-04-15T08:08:57.772Z,14.27
2023-04-15T08:11:25.311Z,13.44
2023-04-15T08:13:52.841Z,12.95
2023-04-15T08:16:24.696Z,12.58
2023-04-15T08:18:52.982Z,12.75
2023-04-15T08:21:20.190Z,12.54
2023-04-15T08:23:48.425Z,12.23
2023-04-15T08:26:15.106Z,12.51
2023-04-15T08:28:42.937Z,12.39
2023-04-15T08:31:10.153Z,12.84
2023-04-15T08:33:36.960Z,13.09
2023-04-15T08:36:03.769Z,13.24
2023-04-15T08:38:30.785Z,13.67
2023-04-15T08:41:00.183Z,14.10
2023-04-15T08:43:34.631Z,14.32
2023-04-15T08:46:02.369Z,14.93
2023-04-15T08:48:32.607Z,15.03
2023-04-15T08:50:59.927Z,15.09
2023-04-15T08:53:26.562Z,15.17
2023-04-15T08:55:57.636Z,14.91
2023-04-15T08:58:25.260Z,15.10
2023-04-15T09:00:51.828Z,15.58
2023-04-15T09:03:19.328Z,15.75
2023-04-15T09:05:47.206Z,15.97
2023-04-15T09:08:13.957Z,16.47
2023-04-15T09:10:40.662Z,16.28
2023-04-15T09:13:07.493Z,15.71
2023-04-15T09:15:38.615Z,15.75
2023-04-15T09:18:06.039Z,15.57
2023-04-15T09:20:40.910Z,16.05
2023-04-15T09:23:15.023Z,16.51
2023-04-15T09:25:44.957Z,16.01
2023-04-15T09:28:11.904Z,16.22
2023-04-15T09:30:38.585Z,15.82
2023-04-15T09:33:08.941Z,15.61
2023-04-15T09:35:36.960Z,16.05
2023-04-15T09:38:08.063Z,15.94
2023-04-15T09:40:39.996Z,15.69
2023-04-15T09:43:08.034Z,16.14
2023-04-15T09:45:36.406Z,15.67
2023-04-15T09:48:31.104Z,15.38
2023-04-15T09:51:01.854Z,15.57
2023-04-15T09:53:29.810Z,15.60
2023-04-15T09:56:01.544Z,15.78
2023-04-15T09:58:31.960Z,16.56
2023-04-15T10:01:00.142Z,16.82
2023-04-15T10:03:28.994Z,17.51
2023-04-15T10:05:57.647Z,16.51
2023-04-15T10:08:27.092Z,16.83
2023-04-15T10:10:54.248Z,16.26
2023-04-15T10:13:25.875Z,16.20
2023-04-15T10:16:01.042Z,16.17
2023-04-15T10:18:28.815Z,15.99
2023-04-15T10:20:55.769Z,15.98
2023-04-15T10:23:24.458Z,15.89
2023-04-15T10:25:56.143Z,15.99
2023-04-15T10:28:23.023Z,16.72
2023-04-15T10:30:50.277Z,16.33
2023-04-15T10:33:20.601Z,16.67
2023-04-15T10:35:50.224Z,16.99
2023-04-15T10:38:36.676Z,17.91
2023-04-15T10:41:18.709Z,18.98
2023-04-15T10:44:00.052Z,17.45
2023-04-15T10:46:38.762Z,17.00
2023-04-15T10:49:13.752Z,16.80
2023-04-15T10:51:42.232Z,17.47
2023-04-15T10:54:31.157Z,17.55
2023-04-15T10:57:01.612Z,17.53
2023-04-15T10:59:31.718Z,17.23
2023-04-15T11:02:03.235Z,17.31
2023-04-15T11:04:56.281Z,17.08
2023-04-15T11:07:44.240Z,16.94
2023-04-15T11:10:13.538Z,16.52
2023-04-15T11:12:41.354Z,17.45
2023-04-15T11:15:32.832Z,17.73
2023-04-15T11:18:10.791Z,18.40
2023-04-15T11:20:39.294Z,18.24
2023-04-15T11:23:14.152Z,19.09
2023-04-15T11:25:43.280Z,19.29
2023-04-15T11:28:11.026Z,19.40
2023-04-15T11:30:39.132Z,20.18
2023-04-15T11:33:08.831Z,20.30
2023-04-15T11:35:36.049Z,18.67
2023-04-15T11:38:08.758Z,19.27
2023-04-15T11:40:36.455Z,19.98
2023-04-15T11:43:14.446Z,20.67
2023-04-15T11:46:01.040Z,21.10
2023-04-15T11:48:29.905Z,20.40
2023-04-15T11:51:04.488Z,20.81
2023-04-15T11:53:39.698Z,20.95
2023-04-15T11:56:07.374Z,20.99
2023-04-15T11:58:39.291Z,20.78
2023-04-15T12:01:07.409Z,20.27
2023-04-15T12:03:43.538Z,18.97
2023-04-15T12:06:16.595Z,19.78
2023-04-15T12:08:55.985Z,20.36
2023-04-15T12:11:43.629Z,20.44
2023-04-15T12:14:13.042Z,20.70
2023-04-15T12:16:48.256Z,20.88
2023-04-15T12:19:19.624Z,20.30
2023-04-15T12:21:48.727Z,20.33
2023-04-15T12:24:15.864Z,20.51
2023-04-15T12:26:51.124Z,20.19
2023-04-15T12:29:18.460Z,20.22
2023-04-15T12:31:56.600Z,20.22
2023-04-15T12:34:43.991Z,20.39
2023-04-15T12:37:12.368Z,20.47
2023-04-15T12:39:41.599Z,20.19
2023-04-15T12:42:09.084Z,19.45
2023-04-15T12:44:36.988Z,19.36
2023-04-15T12:47:04.388Z,19.72
2023-04-15T12:49:32.634Z,19.60
2023-04-15T12:52:01.133Z,19.61
2023-04-15T12:54:29.014Z,19.82
2023-04-15T12:56:56.071Z,19.66
2023-04-15T12:59:24.399Z,19.78
2023-04-15T13:01:52.787Z,19.55
2023-04-15T13:04:20.903Z,19.17
2023-04-15T13:06:47.766Z,19.10
2023-04-15T13:09:14.853Z,19.00
2023-04-15T13:11:41.897Z,18.64
2023-04-15T13:14:11.695Z,18.47
2023-04-15T13:16:38.939Z,18.34
2023-04-15T13:19:05.612Z,18.12
2023-04-15T13:21:36.115Z,17.92
2023-04-15T13:24:04.536Z,18.21
2023-04-15T13:26:32.176Z,18.19
2023-04-15T13:29:00.633Z,18.32
2023-04-15T13:31:27.551Z,18.14
2023-04-15T13:33:54.322Z,18.00
2023-04-15T13:36:21.216Z,17.92
2023-04-15T13:38:50.484Z,17.83
2023-04-15T13:41:18.033Z,18.18
2023-04-15T13:43:44.598Z,18.13
2023-04-15T13:46:11.269Z,17.78
2023-04-15T13:48:37.937Z,17.49
2023-04-15T13:51:04.567Z,16.84
2023-04-15T13:53:37.823Z,16.75
2023-04-15T13:56:06.242Z,16.55
2023-04-15T13:58:32.929Z,16.45
2023-04-15T14:00:59.581Z,16.51
2023-04-15T14:03:26.362Z,16.32
2023-04-15T14:05:56.108Z,16.26
2023-04-15T14:08:23.523Z,15.92
2023-04-15T14:10:50.187Z,15.68
2023-04-15T14:13:16.859Z,15.62
2023-04-15T14:15:43.476Z,15.82
2023-04-15T14:18:10.181Z,15.85
2023-04-15T14:20:36.739Z,15.58
2023-04-15T14:23:03.263Z,15.54
2023-04-15T14:25:33.848Z,15.76
2023-04-15T14:28:01.786Z,15.72
2023-04-15T14:30:28.556Z,15.54
2023-04-15T14:32:55.237Z,15.40
2023-04-15T14:35:21.999Z,15.29
2023-04-15T14:37:48.537Z,15.31
2023-04-15T14:40:15.850Z,15.13
2023-04-15T14:42:42.398Z,14.94
2023-04-15T14:45:09.927Z,14.89
2023-04-15T14:47:36.650Z,14.74
2023-04-15T14:50:04.000Z,14.88
2023-04-15T14:52:39.009Z,14.91
2023-04-15T14:55:07.953Z,14.95
2023-04-15T14:57:34.601Z,14.65
2023-04-15T15:00:01.340Z,14.58
2023-04-15T15:02:38.444Z,14.50
2023-04-15T15:05:07.170Z,14.49
2023-04-15T15:07:34.000Z,14.46
2023-04-15T15:10:00.861Z,14.54
2023-04-15T15:12:27.581Z,14.43
2023-04-15T15:14:56.108Z,14.41
2023-04-15T15:17:23.112Z,14.28
2023-04-15T15:19:49.691Z,14.12
2023-04-15T15:22:17.552Z,14.11
2023-04-15T15:24:45.155Z,14.13
2023-04-15T15:27:11.941Z,13.91
2023-04-15T15:29:38.838Z,13.71
2023-04-15T15:32:05.661Z,13.76
2023-04-15T15:34:32.455Z,13.65
2023-04-15T15:37:00.399Z,13.57
2023-04-15T15:39:27.844Z,13.58
2023-04-15T15:41:54.828Z,13.72
2023-04-15T15:44:21.396Z,13.54
2023-04-15T15:46:48.442Z,13.46
2023-04-15T15:49:15.100Z,13.41
2023-04-15T15:51:41.739Z,13.38
2023-04-15T15:54:08.448Z,13.21
2023-04-15T15:56:35.372Z,13.26
2023-04-15T15:59:02.250Z,13.23
2023-04-15T16:01:29.012Z,13.14
2023-04-15T16:03:55.757Z,13.12
2023-04-15T16:06:23.633Z,12.99
2023-04-15T16:08:50.297Z,12.76
2023-04-15T16:11:19.018Z,12.81
2023-04-15T16:13:46.519Z,12.71
2023-04-15T16:16:13.336Z,12.68
2023-04-15T16:18:39.917Z,12.61
2023-04-15T16:21:06.641Z,12.52
2023-04-15T16:23:33.512Z,12.48
2023-04-15T16:26:00.539Z,12.41
2023-04-15T16:28:27.415Z,12.41
2023-04-15T16:30:54.737Z,12.42
2023-04-15T16:33:21.487Z,12.37
2023-04-15T16:35:48.270Z,12.32
2023-04-15T16:38:14.941Z,12.24
2023-04-15T16:40:41.571Z,12.13
2023-04-15T16:43:11.751Z,12.03
2023-04-15T16:45:38.617Z,11.94
2023-04-15T16:48:05.422Z,11.90
2023-04-15T16:50:32.292Z,11.71
2023-04-15T16:52:58.834Z,11.71
2023-04-15T16:55:25.494Z,11.67
2023-04-15T16:58:00.971Z,11.58
2023-04-15T17:00:29.728Z,11.51
2023-04-15T17:02:56.405Z,11.49
2023-04-15T17:05:23.188Z,11.34
2023-04-15T17:07:49.915Z,11.26
2023-04-15T17:10:16.557Z,11.16
2023-04-15T17:12:43.576Z,11.00
2023-04-15T17:15:10.378Z,10.85
2023-04-15T17:17:37.012Z,10.75
2023-04-15T17:20:04.588Z,10.66
2023-04-15T17:22:31.322Z,10.59
2023-04-15T17:24:57.904Z,10.53
2023-04-15T17:27:26.505Z,10.49
2023-04-15T17:29:53.357Z,10.37
2023-04-15T17:32:20.322Z,10.20
2023-04-15T17:34:50.118Z,10.12
2023-04-15T17:37:18.126Z,9.98
2023-04-15T17:39:44.993Z,9.91
2023-04-15T17:42:12.187Z,9.71
2023-04-15T17:44:39.000Z,9.58
2023-04-15T17:47:05.752Z,9.48
2023-04-15T17:49:34.677Z,9.40
2023-04-15T17:52:01.472Z,9.28
2023-04-15T17:54:28.262Z,9.17
2023-04-15T17:56:56.654Z,9.10
2023-04-15T17:59:23.689Z,9.03
2023-04-15T18:01:50.728Z,8.97
2023-04-15T18:04:17.562Z,8.90
2023-04-15T18:06:44.354Z,8.83
2023-04-15T18:09:11.493Z,8.74
2023-04-15T18:11:40.056Z,8.66
2023-04-15T18:14:07.181Z,8.60
2023-04-15T18:16:34.256Z,8.49
2023-04-15T18:19:01.387Z,8.40
2023-04-15T18:21:27.995Z,8.33
2023-04-15T18:23:54.634Z,8.27
2023-04-15T18:26:22.363Z,8.19
2023-04-15T18:28:49.121Z,8.13
2023-04-15T18:31:15.755Z,8.03
2023-04-15T18:33:42.488Z,7.98
2023-04-15T18:36:10.134Z,7.92
2023-04-15T18:38:37.151Z,7.84
2023-04-15T18:41:05.493Z,7.77
2023-04-15T18:43:32.468Z,7.67
2023-04-15T18:46:00.191Z,7.65
2023-04-15T18:48:27.247Z,7.59
2023-04-15T18:50:54.274Z,7.54
2023-04-15T18:53:21.663Z,7.47
2023-04-15T18:55:48.291Z,7.35
2023-04-15T18:58:14.910Z,7.26
2023-04-15T19:00:44.114Z,7.21
2023-04-15T19:03:11.753Z,7.20
2023-04-15T19:05:38.698Z,7.15
2023-04-15T19:08:05.480Z,7.11
2023-04-15T19:10:32.105Z,7.15
2023-04-15T19:12:58.716Z,7.14
2023-04-15T19:15:25.466Z,7.11
2023-04-15T19:17:52.028Z,7.00
2023-04-15T19:20:18.729Z,6.98
2023-04-15T19:22:45.946Z,6.92
2023-04-15T19:25:12.635Z,6.84
2023-04-15T19:27:39.275Z,6.79
2023-04-15T19:30:07.212Z,6.76
2023-04-15T19:32:34.554Z,6.70
2023-04-15T19:35:01.174Z,6.63
2023-04-15T19:37:27.812Z,6.65
2023-04-15T19:39:55.898Z,6.65
2023-04-15T19:42:22.512Z,6.64
2023-04-15T19:44:49.296Z,6.74
2023-04-15T19:47:16.408Z,6.87
2023-04-15T19:49:43.276Z,6.97
2023-04-15T19:52:09.956Z,6.94
2023-04-15T19:54:36.589Z,6.85
2023-04-15T19:57:03.246Z,6.80
2023-04-15T19:59:29.888Z,6.86
2023-04-15T20:01:56.820Z,6.99
2023-04-15T20:04:23.932Z,7.07
2023-04-15T20:06:50.899Z,7.09
2023-04-15T20:09:17.681Z,7.11
2023-04-15T20:12:44.991Z,7.04
2023-04-15T20:14:31.070Z,6.98
2023-04-15T20:16:57.632Z,6.98
2023-04-15T20:19:24.443Z,6.95
2023-04-15T20:21:52.560Z,6.88
2023-04-15T20:24:20.245Z,6.82
2023-04-15T20:26:47.191Z,6.72
2023-04-15T20:29:14.053Z,6.72
2023-04-15T20:31:40.853Z,6.77
2023-04-15T20:34:09.937Z,6.77
2023-04-15T20:36:37.945Z,6.73
2023-04-15T20:39:04.794Z,6.64
2023-04-15T20:41:31.887Z,6.59
2023-04-15T20:43:58.521Z,6.60
2023-04-15T20:46:27.298Z,6.54
2023-04-15T20:48:54.520Z,6.53
2023-04-15T20:51:21.270Z,6.51
2023-04-15T20:53:47.890Z,6.52
2023-04-15T20:56:14.468Z,6.49
2023-04-15T20:58:41.254Z,6.45
2023-04-15T21:01:07.980Z,6.39
2023-04-15T21:03:34.845Z,6.35
2023-04-15T21:06:01.529Z,6.38
2023-04-15T21:08:30.014Z,6.40
2023-04-15T21:10:57.818Z,6.40
2023-04-15T21:13:24.487Z,6.45
2023-04-15T21:15:53.982Z,6.52
2023-04-15T21:18:22.597Z,6.62
2023-04-15T21:21:00.165Z,6.72
2023-04-15T21:23:31.026Z,6.79
2023-04-15T21:25:58.877Z,6.91
2023-04-15T21:28:27.956Z,6.99
2023-04-15T21:30:54.527Z,6.97
2023-04-15T21:33:21.139Z,6.89
2023-04-15T21:35:47.976Z,6.74
2023-04-15T21:38:14.894Z,6.67
2023-04-15T21:40:41.561Z,6.70
2023-04-15T21:43:08.532Z,6.81
2023-04-15T21:45:36.384Z,6.93
2023-04-15T21:48:07.834Z,7.01
2023-04-15T21:50:36.840Z,7.09
2023-04-15T21:53:03.947Z,7.13
2023-04-15T21:55:30.569Z,7.16
2023-04-15T21:57:57.622Z,7.24
2023-04-15T22:00:24.429Z,7.27
2023-04-15T22:02:51.735Z,7.29
2023-04-15T22:05:18.641Z,7.22
2023-04-15T22:07:45.219Z,7.20
2023-04-15T22:10:12.341Z,7.22
2023-04-15T22:12:44.072Z,7.25
2023-04-15T22:15:11.166Z,7.26
2023-04-15T22:17:37.971Z,7.22
2023-04-15T22:20:04.934Z,7.12
2023-04-15T22:22:37.716Z,6.97
2023-04-15T22:25:11.418Z,6.91
2023-04-15T22:27:38.185Z,6.84
2023-04-15T22:30:06.066Z,6.73
2023-04-15T22:32:32.900Z,6.74
2023-04-15T22:34:59.541Z,6.72
2023-04-15T22:37:26.252Z,6.70
2023-04-15T22:39:52.936Z,6.77
2023-04-15T22:42:19.469Z,6.88
2023-04-15T22:44:46.340Z,6.93
2023-04-15T22:47:12.905Z,6.99
2023-04-15T22:49:39.970Z,6.99
2023-04-15T22:52:09.025Z,6.96
2023-04-15T22:54:37.197Z,6.94
2023-04-15T22:57:03.915Z,6.89
2023-04-15T22:59:30.492Z,6.89
2023-04-15T23:01:59.309Z,6.95
2023-04-15T23:04:27.647Z,7.09
2023-04-15T23:06:54.870Z,7.19
2023-04-15T23:09:21.564Z,7.26
2023-04-15T23:11:48.199Z,7.30
2023-04-15T23:14:14.856Z,7.37
2023-04-15T23:16:41.468Z,7.38
2023-04-15T23:19:08.600Z,7.43
2023-04-15T23:21:35.541Z,7.45
2023-04-15T23:24:03.325Z,7.46
2023-04-15T23:26:29.992Z,7.51
2023-04-15T23:28:56.547Z,7.52
2023-04-15T23:31:23.229Z,7.55
2023-04-15T23:33:49.795Z,7.58
2023-04-15T23:36:16.382Z,7.60
2023-04-15T23:38:43.002Z,7.64
2023-04-15T23:41:11.918Z,7.65
2023-04-15T23:43:38.713Z,7.64
2023-04-15T23:46:05.535Z,7.61
2023-04-15T23:48:32.153Z,7.66
2023-04-15T23:50:59.049Z,7.68
2023-04-15T23:53:25.926Z,7.66
2023-04-15T23:55:52.498Z,7.65
2023-04-15T23:58:19.533Z,7.70
